Time;durP1;ratioP1;P1;durP2;ratioP2;P2;SDS_P1;SDS_P2;PMS_P1;PMS_P2;Temp;Humidity;BMP_temperature;BMP_pressure;BME280_temperature;BME280_humidity;BME280_pressure;Samples;Min_cycle;Max_cycle;Signal;HPM_P1;HPM_P2
2023/11/06 00:01:36;;;;;;;4.73;0.93;;;22.40;48.60;;;;;;5051716;28;20195;-66
2023/11/06 00:04:03;;;;;;;3.23;1.10;;;22.30;50.70;;;;;;5052818;28;20187;-68
2023/11/06 00:06:30;;;;;;;4.20;1.20;;;22.30;50.40;;;;;;5054687;28;20616;-66
2023/11/06 00:08:58;;;;;;;4.00;1.10;;;21.70;51.30;;;;;;5048788;28;20552;-66
2023/11/06 00:11:25;;;;;;;2.70;1.10;;;22.00;51.40;;;;;;5051651;28;20195;-67
2023/11/06 00:13:53;;;;;;;4.63;1.40;;;21.90;52.10;;;;;;5041188;28;20207;-66
2023/11/06 00:16:21;;;;;;;6.03;1.10;;;21.90;52.20;;;;;;5050483;28;20187;-67
2023/11/06 00:18:48;;;;;;;3.17;0.90;;;21.80;52.30;;;;;;5052252;28;20202;-67
2023/11/06 00:21:15;;;;;;;2.67;0.90;;;22.00;53.50;;;;;;5053341;28;20184;-69
2023/11/06 00:23:44;;;;;;;4.27;1.20;;;21.90;52.50;;;;;;5054323;28;20210;-67
2023/11/06 00:26:15;;;;;;;6.03;1.37;;;21.80;53.40;;;;;;5054285;28;20176;-67
2023/11/06 00:28:43;;;;;;;5.33;1.40;;;21.60;53.40;;;;;;5052362;28;20184;-67
2023/11/06 00:31:11;;;;;;;7.10;1.10;;;21.40;53.70;;;;;;5054228;28;20183;-67
2023/11/06 00:33:41;;;;;;;5.53;1.13;;;21.60;53.90;;;;;;5053806;28;20192;-67
2023/11/06 00:36:18;;;;;;;2.17;0.80;;;21.40;53.50;;;;;;5050578;28;20173;-66
2023/11/06 00:38:46;;;;;;;3.97;0.83;;;21.50;53.80;;;;;;5052040;28;20227;-67
2023/11/06 00:41:14;;;;;;;3.60;1.00;;;21.40;53.30;;;;;;5053029;28;20654;-66
2023/11/06 00:43:42;;;;;;;2.60;0.80;;;21.30;53.60;;;;;;5052971;28;20621;-66
2023/11/06 00:46:10;;;;;;;3.80;1.20;;;21.10;53.60;;;;;;5053517;28;20180;-66
2023/11/06 00:48:37;;;;;;;3.03;0.97;;;21.00;53.70;;;;;;5052996;28;20196;-66
2023/11/06 00:51:05;;;;;;;4.37;0.83;;;21.00;54.80;;;;;;5049317;28;20172;-66
2023/11/06 00:53:33;;;;;;;3.67;0.77;;;21.10;55.70;;;;;;5053894;28;20537;-66
2023/11/06 00:56:00;;;;;;;4.67;1.30;;;21.10;56.00;;;;;;5046109;28;20184;-66
2023/11/06 00:58:27;;;;;;;6.87;0.97;;;21.20;56.00;;;;;;5051422;28;20587;-66
2023/11/06 01:00:55;;;;;;;3.63;0.90;;;21.30;56.50;;;;;;5053349;28;20576;-68
2023/11/06 01:03:23;;;;;;;1.90;0.93;;;21.30;56.30;;;;;;5050142;28;20195;-66
2023/11/06 01:05:50;;;;;;;7.13;1.00;;;21.50;56.80;;;;;;5049927;28;20184;-66
2023/11/06 01:08:17;;;;;;;2.63;1.07;;;21.70;56.00;;;;;;5049132;28;20183;-66
2023/11/06 01:10:45;;;;;;;5.40;1.10;;;21.60;55.40;;;;;;5052020;28;20703;-66
2023/11/06 01:13:13;;;;;;;3.73;1.20;;;21.50;55.90;;;;;;5054204;28;20229;-66
2023/11/06 01:15:42;;;;;;;1.17;0.70;;;21.80;56.30;;;;;;5053577;28;20172;-66
2023/11/06 01:18:10;;;;;;;4.50;1.23;;;22.20;55.00;;;;;;5054228;28;20229;-67
2023/11/06 01:20:39;;;;;;;3.37;1.03;;;22.20;55.90;;;;;;5053485;28;20183;-67
2023/11/06 01:33:12;;;;;;;2.60;0.93;;;22.20;55.50;;;;;;5053571;28;20234;-68
2023/11/06 01:35:39;;;;;;;3.77;1.20;;;22.20;54.20;;;;;;5052772;28;20259;-67
2023/11/06 01:38:07;;;;;;;3.00;1.07;;;22.00;54.30;;;;;;5053365;28;20230;-68
2023/11/06 01:40:34;;;;;;;3.70;1.10;;;21.80;54.20;;;;;;5052556;28;20544;-69
2023/11/06 01:43:05;;;;;;;4.23;0.90;;;21.80;53.70;;;;;;5053838;28;20180;-69
2023/11/06 01:45:37;;;;;;;4.50;0.90;;;21.70;54.80;;;;;;5051217;28;20184;-68
2023/11/06 01:48:05;;;;;;;4.60;0.90;;;21.70;54.20;;;;;;5053268;28;20180;-67
2023/11/06 01:50:39;;;;;;;5.80;1.13;;;21.80;54.20;;;;;;5053436;28;20184;-67
2023/11/06 01:53:09;;;;;;;5.67;1.40;;;21.60;54.80;;;;;;5052443;28;20288;-66
2023/11/06 01:55:41;;;;;;;3.10;1.00;;;21.70;54.10;;;;;;5052919;28;20254;-66
2023/11/06 01:58:12;;;;;;;1.23;0.70;;;21.70;54.10;;;;;;5053119;28;20207;-67
2023/11/06 02:00:45;;;;;;;3.57;0.83;;;21.80;53.40;;;;;;5053161;28;20250;-65
2023/11/06 02:03:13;;;;;;;5.33;0.90;;;22.00;54.10;;;;;;5052692;28;20800;-66
2023/11/06 02:05:40;;;;;;;4.67;1.00;;;22.10;53.60;;;;;;5051740;28;20176;-66
2023/11/06 02:08:08;;;;;;;6.13;1.10;;;21.90;53.70;;;;;;5052176;28;20558;-67
2023/11/06 02:10:36;;;;;;;5.97;1.00;;;22.00;54.30;;;;;;5052769;28;20184;-69
2023/11/06 02:13:04;;;;;;;3.90;1.13;;;22.00;54.20;;;;;;5052678;28;20237;-67
2023/11/06 02:15:31;;;;;;;4.10;1.00;;;21.90;54.50;;;;;;5045412;28;20176;-66
2023/11/06 02:17:58;;;;;;;2.00;0.90;;;21.80;54.70;;;;;;5052745;28;20172;-68
2023/11/06 02:20:26;;;;;;;5.33;1.20;;;21.80;53.90;;;;;;5052532;28;20172;-67
2023/11/06 02:23:04;;;;;;;5.90;1.10;;;21.30;55.40;;;;;;5052530;28;20176;-66
2023/11/06 02:25:31;;;;;;;3.07;0.93;;;21.20;57.20;;;;;;5050783;28;20175;-67
2023/11/06 02:27:59;;;;;;;3.47;0.80;;;21.10;56.80;;;;;;5051644;28;20184;-67
2023/11/06 02:30:26;;;;;;;6.97;1.17;;;21.10;57.50;;;;;;5052717;28;20236;-65
2023/11/06 02:32:53;;;;;;;3.63;0.87;;;21.30;57.20;;;;;;5052761;28;20214;-67
2023/11/06 02:35:21;;;;;;;4.53;1.03;;;21.40;57.60;;;;;;5052279;28;20202;-69
2023/11/06 02:37:48;;;;;;;2.93;1.10;;;21.60;56.50;;;;;;5052291;28;20255;-70
2023/11/06 02:40:16;;;;;;;4.13;1.00;;;21.50;56.50;;;;;;5052299;28;20254;-67
2023/11/06 02:42:44;;;;;;;2.43;0.77;;;21.30;57.50;;;;;;5047679;28;20180;-69
2023/11/06 02:45:11;;;;;;;2.27;1.00;;;21.40;57.30;;;;;;5066426;28;20179;-71
2023/11/06 02:47:39;;;;;;;3.60;1.13;;;21.30;57.30;;;;;;5069425;28;20584;-71
2023/11/06 02:50:08;;;;;;;5.67;1.13;;;21.30;57.20;;;;;;5060115;28;20265;-67
2023/11/06 02:52:35;;;;;;;2.30;0.97;;;21.10;57.40;;;;;;5072317;28;20207;-68
2023/11/06 02:55:02;;;;;;;3.80;1.00;;;21.20;57.90;;;;;;5061651;28;20309;-66
2023/11/06 03:01:14;;;;;;;6.33;1.00;;;21.00;57.50;;;;;;5054860;28;20322;-66
2023/11/06 03:03:42;;;;;;;5.07;0.80;;;20.90;57.90;;;;;;5058024;28;20546;-66
2023/11/06 03:06:10;;;;;;;4.43;1.10;;;20.90;58.50;;;;;;5079487;28;20182;-69
2023/11/06 03:08:37;;;;;;;4.03;1.10;;;21.00;58.10;;;;;;5064879;28;20186;-70
2023/11/06 03:11:05;;;;;;;3.90;0.80;;;21.00;57.70;;;;;;5078833;28;20178;-71
2023/11/06 03:13:33;;;;;;;4.47;0.90;;;21.00;58.00;;;;;;5076540;28;20184;-69
2023/11/06 03:16:00;;;;;;;4.30;1.13;;;20.90;58.10;;;;;;5074569;28;20187;-67
2023/11/06 03:18:27;;;;;;;5.27;0.90;;;20.80;57.30;;;;;;5057221;28;20172;-67
2023/11/06 03:20:55;;;;;;;3.37;1.23;;;20.70;58.60;;;;;;5059349;28;20210;-71
2023/11/06 03:23:23;;;;;;;4.03;1.00;;;20.80;58.40;;;;;;5058712;28;20180;-66
2023/11/06 03:25:50;;;;;;;7.40;1.30;;;20.80;57.90;;;;;;5057387;28;20210;-69
2023/11/06 03:28:17;;;;;;;8.00;1.23;;;21.10;57.20;;;;;;5058944;28;20175;-67
2023/11/06 03:30:44;;;;;;;3.33;1.10;;;21.20;57.70;;;;;;5056877;28;20183;-69
2023/11/06 03:33:12;;;;;;;4.63;1.30;;;21.20;57.60;;;;;;5052805;28;20299;-67
2023/11/06 03:35:39;;;;;;;5.13;1.23;;;21.30;57.30;;;;;;5057062;28;20225;-68
2023/11/06 03:38:07;;;;;;;6.50;0.90;;;21.60;57.80;;;;;;5052973;28;20230;-67
2023/11/06 03:40:35;;;;;;;2.17;1.00;;;21.80;56.40;;;;;;5058477;28;20221;-67
2023/11/06 03:43:02;;;;;;;1.70;0.83;;;21.80;56.10;;;;;;5058156;28;20262;-66
2023/11/06 03:45:29;;;;;;;5.97;1.10;;;21.80;56.50;;;;;;5056890;28;22193;-68
2023/11/06 03:48:00;;;;;;;2.63;0.83;;;22.00;56.80;;;;;;5054633;28;20210;-69
2023/11/06 03:50:27;;;;;;;6.50;0.90;;;22.40;54.60;;;;;;5057554;28;20211;-70
2023/11/06 03:52:54;;;;;;;2.47;0.77;;;23.00;52.50;;;;;;5057914;28;20261;-67
2023/11/06 03:55:21;;;;;;;5.23;1.10;;;23.30;53.10;;;;;;5055831;28;20199;-70
2023/11/06 03:57:49;;;;;;;4.30;0.83;;;23.40;53.00;;;;;;5056297;28;20183;-71
2023/11/06 04:00:17;;;;;;;3.07;0.87;;;23.30;52.60;;;;;;5057292;28;20215;-68
2023/11/06 04:02:45;;;;;;;6.10;1.07;;;23.30;52.30;;;;;;5056891;28;20190;-68
2023/11/06 04:05:12;;;;;;;6.63;0.90;;;24.20;50.30;;;;;;5051563;28;20461;-68
2023/11/06 04:07:39;;;;;;;6.10;0.97;;;24.20;50.10;;;;;;5056752;28;20179;-67
2023/11/06 04:10:07;;;;;;;6.20;1.00;;;23.70;51.00;;;;;;5047131;28;20202;-68
2023/11/06 04:12:34;;;;;;;1.90;0.77;;;24.50;49.50;;;;;;5054172;28;20218;-68
2023/11/06 04:15:02;;;;;;;4.20;0.70;;;24.80;48.00;;;;;;5067476;28;20637;-70
2023/11/06 04:17:30;;;;;;;2.30;0.70;;;25.20;47.40;;;;;;5089434;28;20225;-68
2023/11/06 04:19:57;;;;;;;1.63;0.70;;;25.40;46.10;;;;;;5074551;28;20179;-69
2023/11/06 04:22:25;;;;;;;3.20;0.67;;;25.60;46.00;;;;;;5064745;28;20703;-69
2023/11/06 04:24:52;;;;;;;3.00;0.50;;;25.10;46.80;;;;;;5061566;28;20198;-68
2023/11/06 04:27:20;;;;;;;4.97;0.60;;;25.60;46.60;;;;;;5070506;28;20179;-66
2023/11/06 04:29:47;;;;;;;6.87;0.90;;;25.70;45.70;;;;;;5070933;28;20275;-67
2023/11/06 04:32:14;;;;;;;6.23;0.80;;;25.60;45.40;;;;;;5068703;28;20764;-67
2023/11/06 04:34:42;;;;;;;1.77;0.73;;;25.70;45.50;;;;;;5063831;28;20180;-67
2023/11/06 04:37:12;;;;;;;1.43;0.60;;;25.50;45.60;;;;;;5074564;28;20353;-68
2023/11/06 04:39:44;;;;;;;3.63;1.00;;;24.80;47.30;;;;;;5064885;28;20199;-67
2023/11/06 04:42:11;;;;;;;3.53;0.70;;;24.90;46.70;;;;;;5058859;28;20176;-68
2023/11/06 04:44:39;;;;;;;1.57;0.80;;;25.30;45.90;;;;;;5059901;28;20621;-68
2023/11/06 04:47:08;;;;;;;4.07;0.73;;;25.70;45.00;;;;;;5058365;28;20172;-68
2023/11/06 04:49:36;;;;;;;5.80;1.00;;;25.30;45.50;;;;;;5066537;28;20195;-67
2023/11/06 04:52:03;;;;;;;4.77;0.90;;;25.20;45.90;;;;;;5066548;28;20199;-67
2023/11/06 04:54:30;;;;;;;3.67;0.90;;;25.00;47.30;;;;;;5071574;28;20554;-66
2023/11/06 04:56:58;;;;;;;7.20;1.33;;;25.30;45.80;;;;;;5057826;28;20186;-67
2023/11/06 04:59:25;;;;;;;4.20;0.57;;;26.20;44.40;;;;;;5041939;28;20179;-66
2023/11/06 05:01:53;;;;;;;5.47;0.90;;;24.90;46.80;;;;;;5052322;28;20188;-65
2023/11/06 05:04:20;;;;;;;1.63;0.60;;;23.60;49.80;;;;;;5053067;28;20180;-66
2023/11/06 05:06:48;;;;;;;4.93;0.97;;;23.10;50.90;;;;;;5052141;28;20656;-68
2023/11/06 05:09:15;;;;;;;5.47;0.73;;;23.20;51.40;;;;;;5053269;28;20188;-67
2023/11/06 05:11:43;;;;;;;4.07;0.70;;;22.50;52.70;;;;;;5048453;28;20227;-67
2023/11/06 05:14:10;;;;;;;3.73;0.80;;;23.40;51.10;;;;;;5050747;28;20182;-67
2023/11/06 05:16:40;;;;;;;3.90;0.87;;;24.40;49.00;;;;;;5051983;28;20171;-68
2023/11/06 05:19:07;;;;;;;1.53;0.63;;;25.20;46.50;;;;;;5049185;28;20259;-67
2023/11/06 05:21:36;;;;;;;4.27;0.90;;;26.00;45.50;;;;;;5051652;28;20525;-66
2023/11/06 05:24:03;;;;;;;2.80;0.77;;;26.10;43.90;;;;;;5051911;28;20183;-67
2023/11/06 05:26:31;;;;;;;1.40;0.60;;;25.90;44.30;;;;;;5049659;28;20206;-68
2023/11/06 05:28:59;;;;;;;1.63;0.83;;;25.00;45.40;;;;;;5052494;28;20636;-66
2023/11/06 05:31:28;;;;;;;3.30;0.87;;;25.40;45.20;;;;;;5052000;28;20212;-67
2023/11/06 05:33:58;;;;;;;2.83;0.80;;;25.90;44.20;;;;;;5049566;28;20180;-67
2023/11/06 05:36:28;;;;;;;4.03;0.83;;;26.30;43.80;;;;;;5051336;28;20577;-66
2023/11/06 05:38:56;;;;;;;3.80;0.70;;;26.70;42.30;;;;;;5050659;28;20745;-67
2023/11/06 05:41:25;;;;;;;3.20;0.97;;;26.40;43.80;;;;;;5052573;28;20172;-68
2023/11/06 05:43:52;;;;;;;4.43;0.90;;;26.10;43.30;;;;;;5050246;28;20310;-68
2023/11/06 05:46:20;;;;;;;5.67;0.80;;;25.50;44.40;;;;;;5052916;28;20259;-69
2023/11/06 05:48:47;;;;;;;3.97;0.83;;;26.20;42.70;;;;;;5050617;28;20190;-67
2023/11/06 05:51:14;;;;;;;2.93;0.93;;;25.70;44.00;;;;;;5050721;28;20184;-68
2023/11/06 05:53:42;;;;;;;1.30;0.70;;;25.40;44.50;;;;;;5051865;28;20194;-66
2023/11/06 05:56:09;;;;;;;4.43;0.80;;;24.70;46.10;;;;;;5050425;28;20219;-70
2023/11/06 05:58:36;;;;;;;1.63;0.50;;;25.10;45.60;;;;;;5050742;28;20176;-66
2023/11/06 06:01:04;;;;;;;5.57;0.70;;;25.50;45.60;;;;;;5052490;28;20249;-69
2023/11/06 06:03:32;;;;;;;4.37;0.80;;;25.50;45.20;;;;;;5052749;28;20203;-68
2023/11/06 06:05:59;;;;;;;1.83;0.70;;;25.80;45.00;;;;;;5050653;28;20719;-65
2023/11/06 06:08:26;;;;;;;3.53;0.90;;;25.40;44.80;;;;;;5047178;28;20180;-67
2023/11/06 06:10:54;;;;;;;3.87;0.87;;;25.70;44.90;;;;;;5048032;28;20183;-67
2023/11/06 06:13:22;;;;;;;4.00;0.87;;;25.80;44.60;;;;;;5051594;28;20223;-68
2023/11/06 06:15:49;;;;;;;5.57;1.00;;;25.80;43.60;;;;;;5048191;28;20546;-66
2023/11/06 06:18:17;;;;;;;2.33;0.70;;;24.70;47.40;;;;;;5049499;28;20191;-67
2023/11/06 06:20:45;;;;;;;2.90;0.83;;;24.50;47.30;;;;;;5053161;28;20250;-66
2023/11/06 06:23:12;;;;;;;4.03;1.00;;;25.40;45.70;;;;;;5052441;28;20547;-66
2023/11/06 06:25:43;;;;;;;2.53;0.70;;;25.80;44.40;;;;;;5051889;28;20195;-67
2023/11/06 06:28:10;;;;;;;3.90;0.80;;;25.70;44.80;;;;;;5057828;28;20185;-66
2023/11/06 06:30:38;;;;;;;3.73;0.90;;;26.00;45.10;;;;;;5054672;28;20603;-66
2023/11/06 06:33:05;;;;;;;4.60;1.13;;;26.60;43.50;;;;;;5051757;28;20212;-67
2023/11/06 06:35:33;;;;;;;3.97;0.90;;;26.90;43.10;;;;;;5050622;28;20747;-67
2023/11/06 06:38:01;;;;;;;3.00;0.87;;;25.80;44.30;;;;;;5052936;28;20231;-67
2023/11/06 06:40:28;;;;;;;2.20;0.73;;;25.30;45.30;;;;;;5051261;28;20343;-67
2023/11/06 06:42:55;;;;;;;2.90;0.97;;;25.50;45.50;;;;;;5051583;28;20180;-66
2023/11/06 06:45:23;;;;;;;7.80;1.10;;;25.30;45.60;;;;;;5039227;28;20183;-69
2023/11/06 06:47:50;;;;;;;3.40;1.00;;;26.00;43.60;;;;;;5042238;28;20237;-66
2023/11/06 06:50:17;;;;;;;5.50;0.90;;;25.50;44.70;;;;;;5049970;28;20271;-67
2023/11/06 06:52:45;;;;;;;1.80;0.70;;;24.80;46.60;;;;;;5047844;28;20223;-66
2023/11/06 06:55:14;;;;;;;5.93;0.90;;;24.60;47.50;;;;;;5051959;28;20172;-68
2023/11/06 06:57:41;;;;;;;4.67;0.93;;;25.40;46.20;;;;;;5046143;28;20219;-68
2023/11/06 07:00:10;;;;;;;3.40;0.70;;;25.10;45.90;;;;;;5051667;28;20664;-70
2023/11/06 07:02:38;;;;;;;4.97;0.90;;;24.30;47.70;;;;;;5051974;28;20203;-68
2023/11/06 07:05:05;;;;;;;3.73;0.83;;;24.20;48.10;;;;;;5051360;28;20172;-69
2023/11/06 07:07:32;;;;;;;2.10;0.80;;;24.20;48.70;;;;;;5044867;28;20195;-67
2023/11/06 07:10:00;;;;;;;3.20;0.83;;;24.20;48.30;;;;;;5047523;28;20183;-67
2023/11/06 07:12:27;;;;;;;2.20;1.00;;;24.90;47.10;;;;;;5050394;28;20207;-69
2023/11/06 07:14:54;;;;;;;3.27;0.90;;;25.00;46.80;;;;;;5045317;28;20207;-69
2023/11/06 07:17:22;;;;;;;5.77;2.07;;;24.60;46.70;;;;;;5051565;28;20176;-69
2023/11/06 07:19:49;;;;;;;5.20;2.10;;;24.70;46.80;;;;;;5050094;28;20489;-68
2023/11/06 07:22:16;;;;;;;4.17;1.63;;;24.30;48.50;;;;;;5048794;28;20266;-65
2023/11/06 07:24:44;;;;;;;5.63;3.40;;;23.50;49.40;;;;;;5045110;28;20185;-67
2023/11/06 07:27:11;;;;;;;3.23;1.87;;;22.90;51.20;;;;;;5048917;28;20187;-67
2023/11/06 07:29:38;;;;;;;2.97;1.17;;;22.10;53.20;;;;;;5050898;28;20188;-66
2023/11/06 07:32:07;;;;;;;4.73;1.20;;;21.50;54.70;;;;;;5050687;28;20215;-65
2023/11/06 07:34:34;;;;;;;5.20;1.00;;;21.20;55.90;;;;;;5052130;28;20218;-67
2023/11/06 07:37:02;;;;;;;4.27;0.90;;;20.90;56.60;;;;;;5051177;28;20219;-67
2023/11/06 07:39:29;;;;;;;3.40;0.77;;;20.70;57.70;;;;;;5048600;28;20177;-67
2023/11/06 07:41:57;;;;;;;4.57;1.00;;;20.50;58.60;;;;;;5044460;28;20176;-66
2023/11/06 07:44:25;;;;;;;7.83;1.20;;;20.30;59.30;;;;;;5052052;28;20266;-66
2023/11/06 07:46:52;;;;;;;3.60;1.00;;;20.10;60.00;;;;;;5054937;28;20180;-66
2023/11/06 07:49:19;;;;;;;5.63;1.17;;;20.00;60.60;;;;;;5053339;28;20643;-65
2023/11/06 07:51:47;;;;;;;2.57;1.07;;;20.00;60.80;;;;;;5054869;28;20200;-64
2023/11/06 07:54:14;;;;;;;4.43;1.10;;;19.90;60.50;;;;;;5055096;28;20192;-66
2023/11/06 07:56:45;;;;;;;6.87;1.53;;;20.00;60.50;;;;;;5054677;28;20186;-65
2023/11/06 07:59:12;;;;;;;3.60;1.23;;;20.00;60.80;;;;;;5053945;28;20184;-66
2023/11/06 08:01:40;;;;;;;1.77;0.80;;;19.80;61.00;;;;;;5047205;28;20188;-66
2023/11/06 08:04:07;;;;;;;4.03;1.30;;;19.70;61.40;;;;;;5050277;28;20291;-65
2023/11/06 08:06:35;;;;;;;4.20;1.07;;;19.60;61.70;;;;;;5052458;28;20184;-66
2023/11/06 08:09:02;;;;;;;3.03;0.97;;;19.50;61.50;;;;;;5053802;28;20263;-65
2023/11/06 08:11:29;;;;;;;3.10;0.90;;;19.40;61.90;;;;;;5053653;28;20187;-65
2023/11/06 08:13:57;;;;;;;5.27;0.90;;;19.30;62.10;;;;;;5051443;28;20191;-65
2023/11/06 08:16:24;;;;;;;4.40;1.23;;;19.30;62.60;;;;;;5054774;28;20234;-65
2023/11/06 08:18:51;;;;;;;4.07;1.30;;;19.20;62.70;;;;;;5053409;28;20234;-63
2023/11/06 08:21:19;;;;;;;2.70;1.07;;;19.20;62.90;;;;;;5047101;28;20259;-67
2023/11/06 08:23:46;;;;;;;4.83;1.00;;;19.20;62.80;;;;;;5053153;28;20219;-66
2023/11/06 08:26:13;;;;;;;4.53;1.00;;;19.10;63.10;;;;;;5055051;28;20176;-66
2023/11/06 08:28:41;;;;;;;3.93;1.20;;;19.10;63.10;;;;;;5052903;28;20196;-65
2023/11/06 08:31:09;;;;;;;3.33;0.90;;;19.00;63.40;;;;;;5055382;28;20196;-65
2023/11/06 08:33:37;;;;;;;3.53;0.90;;;18.90;63.90;;;;;;5054709;28;20250;-65
2023/11/06 08:36:05;;;;;;;2.57;0.80;;;18.90;63.50;;;;;;5047461;28;20555;-65
2023/11/06 08:38:32;;;;;;;4.10;0.93;;;18.80;63.40;;;;;;5078465;28;20686;-66
2023/11/06 08:40:59;;;;;;;3.53;1.03;;;18.80;63.50;;;;;;5052551;28;20557;-67
2023/11/06 08:43:27;;;;;;;3.70;1.00;;;18.80;63.70;;;;;;5051716;28;20265;-65
2023/11/06 08:45:56;;;;;;;3.47;1.20;;;18.80;63.90;;;;;;5062444;28;20218;-67
2023/11/06 08:48:23;;;;;;;2.87;1.03;;;18.80;63.90;;;;;;5068545;28;20191;-66
2023/11/06 08:50:52;;;;;;;3.03;0.90;;;18.80;64.20;;;;;;5063544;28;20200;-66
2023/11/06 08:53:19;;;;;;;2.63;1.13;;;18.80;64.40;;;;;;5057560;28;20305;-66
2023/11/06 08:55:50;;;;;;;4.97;0.90;;;18.70;64.80;;;;;;5049031;28;20187;-65
2023/11/06 08:58:17;;;;;;;3.83;1.10;;;18.70;65.10;;;;;;5066275;28;20194;-65
2023/11/06 09:00:50;;;;;;;6.13;1.07;;;18.70;65.40;;;;;;5059451;28;20246;-65
2023/11/06 09:03:17;;;;;;;4.80;1.33;;;18.60;65.70;;;;;;5044453;28;20209;-65
2023/11/06 09:05:45;;;;;;;4.80;1.00;;;18.60;65.80;;;;;;5053517;28;20193;-67
2023/11/06 09:08:12;;;;;;;5.43;1.50;;;18.60;65.80;;;;;;5054690;28;20187;-66
2023/11/06 09:10:40;;;;;;;1.20;0.70;;;18.50;66.10;;;;;;5054270;28;20230;-67
2023/11/06 09:13:07;;;;;;;7.10;1.40;;;18.50;66.40;;;;;;5050001;28;20215;-66
2023/11/06 09:15:38;;;;;;;5.27;1.20;;;18.50;66.00;;;;;;5045422;28;20542;-67
2023/11/06 09:18:06;;;;;;;3.27;0.90;;;18.50;65.80;;;;;;5049956;28;20229;-65
2023/11/06 09:20:34;;;;;;;3.37;1.07;;;18.50;65.90;;;;;;5047001;28;20263;-66
2023/11/06 09:23:02;;;;;;;2.23;0.90;;;18.50;65.70;;;;;;5040896;28;20180;-66
2023/11/06 09:25:29;;;;;;;3.57;1.00;;;18.50;65.90;;;;;;5048242;28;20192;-67
2023/11/06 09:27:56;;;;;;;5.10;0.97;;;18.50;66.10;;;;;;5047586;28;20176;-66
2023/11/06 09:30:24;;;;;;;3.37;1.23;;;18.40;66.30;;;;;;5040463;28;20175;-66
2023/11/06 09:32:51;;;;;;;2.80;1.00;;;18.40;66.40;;;;;;5053263;28;20261;-70
2023/11/06 09:35:19;;;;;;;5.13;1.10;;;18.40;66.60;;;;;;5052827;28;20179;-66
2023/11/06 09:37:46;;;;;;;2.93;1.10;;;18.40;66.60;;;;;;5052113;28;20589;-66
2023/11/06 09:40:22;;;;;;;2.23;1.17;;;18.40;66.80;;;;;;5050868;28;20179;-65
2023/11/06 09:42:50;;;;;;;2.70;1.20;;;18.30;67.10;;;;;;5047625;28;20302;-67
2023/11/06 09:45:17;;;;;;;3.57;0.90;;;18.40;67.20;;;;;;5044730;28;20191;-64
2023/11/06 09:47:52;;;;;;;4.10;1.27;;;18.40;67.30;;;;;;5052143;28;20180;-65
2023/11/06 09:50:24;;;;;;;7.67;1.17;;;18.30;67.90;;;;;;5052981;28;20202;-66
2023/11/06 09:52:55;;;;;;;3.93;1.13;;;18.30;67.40;;;;;;5051719;28;20615;-65
2023/11/06 09:55:23;;;;;;;4.67;1.10;;;18.30;67.40;;;;;;5039790;28;20180;-66
2023/11/06 09:57:52;;;;;;;4.60;1.37;;;18.30;67.50;;;;;;5041884;28;20208;-65
2023/11/06 10:00:20;;;;;;;4.70;1.20;;;18.30;67.40;;;;;;5051371;28;20177;-65
2023/11/06 10:02:49;;;;;;;2.93;1.23;;;18.30;67.60;;;;;;5051027;28;20194;-66
2023/11/06 10:05:20;;;;;;;6.20;1.33;;;18.30;67.90;;;;;;5052704;28;20234;-66
2023/11/06 10:07:54;;;;;;;4.63;1.30;;;18.20;67.90;;;;;;5049964;28;20196;-66
2023/11/06 10:10:23;;;;;;;4.47;0.90;;;18.20;68.40;;;;;;5047081;28;20258;-66
2023/11/06 10:13:09;;;;;;;4.13;1.23;;;18.30;68.30;;;;;;5048478;28;23179;-66
2023/11/06 10:15:38;;;;;;;4.00;1.10;;;18.30;68.30;;;;;;5042307;28;20703;-64
2023/11/06 10:18:14;;;;;;;4.80;1.20;;;18.20;68.20;;;;;;5052185;28;20620;-65
2023/11/06 10:20:47;;;;;;;3.57;0.93;;;18.20;68.50;;;;;;5050606;28;20184;-65
2023/11/06 10:23:37;;;;;;;4.43;1.10;;;18.20;68.60;;;;;;5047585;28;20642;-65
2023/11/06 10:26:17;;;;;;;2.43;1.10;;;18.20;68.60;;;;;;5046304;28;20195;-65
2023/11/06 10:28:45;;;;;;;5.23;1.50;;;18.10;68.80;;;;;;5043823;28;20256;-66
2023/11/06 10:31:12;;;;;;;2.87;1.00;;;18.10;68.70;;;;;;5045877;28;20187;-65
2023/11/06 10:33:39;;;;;;;5.33;1.37;;;18.10;68.90;;;;;;5046906;28;20230;-66
2023/11/06 10:36:16;;;;;;;2.60;1.03;;;18.10;68.70;;;;;;5045037;28;20277;-66
2023/11/06 10:38:45;;;;;;;5.77;1.50;;;18.10;68.90;;;;;;5047367;28;20258;-66
2023/11/06 10:41:27;;;;;;;7.67;1.80;;;18.10;68.90;;;;;;5043274;28;20188;-65
2023/11/06 10:44:02;;;;;;;4.77;1.57;;;18.10;69.30;;;;;;5047259;28;20219;-65
2023/11/06 10:46:37;;;;;;;5.80;1.77;;;18.10;69.60;;;;;;5047245;28;20183;-64
2023/11/06 10:49:14;;;;;;;3.87;1.10;;;18.10;69.60;;;;;;5049354;28;20211;-66
2023/11/06 10:51:41;;;;;;;2.20;1.17;;;18.00;69.90;;;;;;5043780;28;20191;-67
2023/11/06 10:54:10;;;;;;;6.10;1.60;;;18.00;69.90;;;;;;5047368;28;20191;-68
2023/11/06 10:56:40;;;;;;;5.40;1.00;;;18.00;70.40;;;;;;5049478;28;20217;-64
2023/11/06 10:59:09;;;;;;;5.57;1.27;;;18.00;70.00;;;;;;5042209;28;20198;-65
2023/11/06 11:01:39;;;;;;;3.43;1.20;;;18.00;70.20;;;;;;5048265;28;20658;-66
2023/11/06 11:04:10;;;;;;;6.37;1.13;;;18.00;70.30;;;;;;5048905;28;20183;-67
2023/11/06 11:06:41;;;;;;;3.93;1.00;;;18.00;70.30;;;;;;5055201;28;20188;-65
2023/11/06 11:09:11;;;;;;;5.50;1.30;;;18.00;70.30;;;;;;5048299;28;20184;-65
2023/11/06 11:11:40;;;;;;;5.37;1.27;;;17.90;70.50;;;;;;5057170;28;20241;-65
2023/11/06 11:14:10;;;;;;;7.73;1.20;;;17.90;70.60;;;;;;5051573;28;20206;-65
2023/11/06 11:16:41;;;;;;;3.13;1.20;;;17.90;70.60;;;;;;5056643;28;20656;-66
2023/11/06 11:19:31;;;;;;;5.07;1.37;;;17.90;71.10;;;;;;5054639;28;20328;-65
2023/11/06 11:22:03;;;;;;;4.80;1.30;;;17.90;70.80;;;;;;5062974;28;20187;-66
2023/11/06 11:24:45;;;;;;;8.07;1.10;;;17.80;71.10;;;;;;5076114;28;20281;-66
2023/11/06 11:27:16;;;;;;;4.43;1.27;;;17.90;70.80;;;;;;5049329;28;20725;-66
2023/11/06 11:29:58;;;;;;;3.60;1.30;;;17.80;71.20;;;;;;5056690;28;20187;-65
2023/11/06 11:32:37;;;;;;;4.80;1.20;;;17.90;71.40;;;;;;5073122;28;20183;-65
2023/11/06 11:35:15;;;;;;;2.27;1.10;;;17.80;71.30;;;;;;5066932;28;20629;-66
2023/11/06 11:37:42;;;;;;;6.20;1.40;;;17.80;71.60;;;;;;5055256;28;20227;-66
2023/11/06 11:40:12;;;;;;;4.53;1.53;;;17.80;71.60;;;;;;5056008;28;23223;-67
2023/11/06 11:42:39;;;;;;;5.43;1.30;;;17.90;71.80;;;;;;5058982;28;20172;-66
2023/11/06 11:45:07;;;;;;;3.83;1.30;;;18.00;71.80;;;;;;5068789;28;20266;-68
2023/11/06 11:47:54;;;;;;;3.60;1.20;;;18.00;71.40;;;;;;5075540;28;20168;-66
2023/11/06 11:50:30;;;;;;;3.10;1.23;;;18.00;71.30;;;;;;5075423;28;20572;-66
2023/11/06 11:52:58;;;;;;;5.23;1.10;;;18.00;71.20;;;;;;5060770;28;20223;-66
2023/11/06 11:55:31;;;;;;;5.97;1.10;;;18.00;71.20;;;;;;5067608;28;20210;-66
2023/11/06 11:58:05;;;;;;;7.13;1.43;;;18.10;71.00;;;;;;5061383;28;20192;-66
2023/11/06 12:00:42;;;;;;;8.90;1.57;;;18.20;71.20;;;;;;5071251;28;20175;-67
2023/11/06 12:03:17;;;;;;;12.63;1.80;;;18.20;71.10;;;;;;5073286;28;20266;-68
2023/11/06 12:05:54;;;;;;;10.83;2.00;;;18.20;71.30;;;;;;5075544;28;20565;-66
2023/11/06 12:08:26;;;;;;;4.10;1.03;;;18.30;71.10;;;;;;5075732;28;20181;-67
2023/11/06 12:10:54;;;;;;;3.97;1.30;;;18.20;70.60;;;;;;5064709;28;20180;-65
2023/11/06 12:13:25;;;;;;;2.77;1.33;;;18.30;70.70;;;;;;5064396;28;20646;-65
2023/11/06 12:15:54;;;;;;;3.90;1.17;;;18.30;70.60;;;;;;5055624;28;20210;-65
2023/11/06 12:18:23;;;;;;;4.73;1.20;;;18.30;70.80;;;;;;5066227;28;20587;-65
2023/11/06 12:21:00;;;;;;;4.27;1.60;;;18.30;70.60;;;;;;5067204;28;20634;-63
2023/11/06 12:23:31;;;;;;;4.90;1.97;;;18.30;70.80;;;;;;5065139;28;20183;-64
2023/11/06 12:26:09;;;;;;;7.97;1.60;;;18.30;70.80;;;;;;5059597;28;20271;-64
2023/11/06 12:28:42;;;;;;;4.77;1.53;;;18.30;71.10;;;;;;5061803;28;20195;-65
2023/11/06 12:31:10;;;;;;;1.33;0.87;;;18.20;71.10;;;;;;5054955;28;20179;-64
2023/11/06 12:33:37;;;;;;;4.67;1.33;;;18.20;71.30;;;;;;5052201;28;20310;-65
2023/11/06 12:36:05;;;;;;;2.97;1.20;;;18.10;71.60;;;;;;5045435;28;20275;-65
2023/11/06 12:38:40;;;;;;;5.40;1.47;;;18.10;71.60;;;;;;5059934;28;20227;-65
2023/11/06 12:41:08;;;;;;;5.70;1.17;;;18.00;72.00;;;;;;5059037;28;20222;-65
2023/11/06 12:43:36;;;;;;;3.70;1.27;;;18.00;72.00;;;;;;5055597;28;20190;-65
2023/11/06 12:46:03;;;;;;;4.57;1.40;;;18.00;72.30;;;;;;5054898;28;20211;-65
2023/11/06 12:48:34;;;;;;;9.17;1.50;;;18.00;72.70;;;;;;5052828;28;20233;-65
2023/11/06 12:51:13;;;;;;;6.57;1.10;;;17.80;72.50;;;;;;5054169;28;20180;-65
2023/11/06 12:53:47;;;;;;;3.13;1.37;;;17.80;72.80;;;;;;5056587;28;20217;-65
2023/11/06 12:56:16;;;;;;;9.37;1.63;;;17.80;73.10;;;;;;5048448;28;20187;-65
2023/11/06 12:58:43;;;;;;;6.70;1.47;;;17.80;73.20;;;;;;5052329;28;20692;-64
2023/11/06 13:01:28;;;;;;;4.77;1.10;;;17.80;73.50;;;;;;5057145;28;20274;-66
2023/11/06 13:03:55;;;;;;;6.33;1.33;;;17.80;73.60;;;;;;5053757;28;20205;-66
2023/11/06 13:06:23;;;;;;;9.37;1.20;;;17.80;73.60;;;;;;5055052;28;20183;-66
2023/11/06 13:08:51;;;;;;;4.00;1.30;;;17.80;73.80;;;;;;5053509;28;20187;-64
2023/11/06 13:11:19;;;;;;;3.50;1.17;;;17.80;73.80;;;;;;5055027;28;20223;-66